sensor_id;sensor_type;location;lat;lon;timestamp;pressure;altitude;pressure_sealevel;temperature;humidity
64602;BME280;51013;42.630;23.192;2023-01-28T00:01:41;91609.09;;;-1.05;93.06
64602;BME280;51013;42.630;23.192;2023-01-28T00:04:09;91613.00;;;-1.07;93.25
64602;BME280;51013;42.630;23.192;2023-01-28T00:06:38;91604.22;;;-1.06;92.45
64602;BME280;51013;42.630;23.192;2023-01-28T00:09:07;91608.50;;;-1.02;92.68
64602;BME280;51013;42.630;23.192;2023-01-28T00:11:37;91605.06;;;-1.11;94.01
64602;BME280;51013;42.630;23.192;2023-01-28T00:14:04;91613.97;;;-1.03;93.34
64602;BME280;51013;42.630;23.192;2023-01-28T00:16:32;91616.81;;;-1.05;93.43
64602;BME280;51013;42.630;23.192;2023-01-28T00:18:59;91596.88;;;-1.32;93.16
64602;BME280;51013;42.630;23.192;2023-01-28T00:21:26;91623.13;;;-1.11;93.90
64602;BME280;51013;42.630;23.192;2023-01-28T00:23:55;91626.00;;;-0.98;93.70
64602;BME280;51013;42.630;23.192;2023-01-28T00:26:23;91613.19;;;-1.04;92.86
64602;BME280;51013;42.630;23.192;2023-01-28T00:28:52;91631.84;;;-0.93;92.65
64602;BME280;51013;42.630;23.192;2023-01-28T00:31:20;91626.88;;;-0.89;92.73
64602;BME280;51013;42.630;23.192;2023-01-28T00:33:49;91628.41;;;-0.88;92.32
64602;BME280;51013;42.630;23.192;2023-01-28T00:36:18;91602.22;;;-1.09;92.50
64602;BME280;51013;42.630;23.192;2023-01-28T00:38:48;91637.28;;;-0.94;93.03
64602;BME280;51013;42.630;23.192;2023-01-28T00:41:19;91628.09;;;-1.01;92.50
64602;BME280;51013;42.630;23.192;2023-01-28T00:43:47;91639.59;;;-0.93;92.38
64602;BME280;51013;42.630;23.192;2023-01-28T00:46:17;91639.78;;;-0.89;92.77
64602;BME280;51013;42.630;23.192;2023-01-28T00:48:44;91614.97;;;-1.18;94.11
64602;BME280;51013;42.630;23.192;2023-01-28T00:51:15;91641.91;;;-1.10;94.21
64602;BME280;51013;42.630;23.192;2023-01-28T00:53:43;91641.22;;;-0.97;94.20
64602;BME280;51013;42.630;23.192;2023-01-28T00:56:13;91643.16;;;-1.08;94.30
64602;BME280;51013;42.630;23.192;2023-01-28T00:58:41;91641.47;;;-0.98;92.75
64602;BME280;51013;42.630;23.192;2023-01-28T01:01:10;91642.16;;;-0.93;92.98
64602;BME280;51013;42.630;23.192;2023-01-28T01:03:40;91637.09;;;-0.98;93.52
64602;BME280;51013;42.630;23.192;2023-01-28T01:06:07;91642.03;;;-1.02;93.92
64602;BME280;51013;42.630;23.192;2023-01-28T01:08:34;91646.59;;;-1.12;93.82
64602;BME280;51013;42.630;23.192;2023-01-28T01:11:05;91637.88;;;-1.16;94.71
64602;BME280;51013;42.630;23.192;2023-01-28T01:13:32;91647.22;;;-1.21;95.28
64602;BME280;51013;42.630;23.192;2023-01-28T01:16:01;91639.34;;;-1.10;94.54
64602;BME280;51013;42.630;23.192;2023-01-28T01:18:28;91638.91;;;-0.98;94.39
64602;BME280;51013;42.630;23.192;2023-01-28T01:20:57;91649.22;;;-0.98;94.00
64602;BME280;51013;42.630;23.192;2023-01-28T01:23:25;91647.81;;;-0.91;93.65
64602;BME280;51013;42.630;23.192;2023-01-28T01:25:51;91643.03;;;-0.84;93.69
64602;BME280;51013;42.630;23.192;2023-01-28T01:28:18;91624.94;;;-1.11;93.80
64602;BME280;51013;42.630;23.192;2023-01-28T01:30:46;91648.28;;;-0.89;93.39
64602;BME280;51013;42.630;23.192;2023-01-28T01:33:14;91640.78;;;-1.04;93.91
64602;BME280;51013;42.630;23.192;2023-01-28T01:35:41;91651.47;;;-1.11;94.02
64602;BME280;51013;42.630;23.192;2023-01-28T01:38:11;91648.94;;;-1.16;95.06
64602;BME280;51013;42.630;23.192;2023-01-28T01:40:37;91648.28;;;-1.22;94.53
64602;BME280;51013;42.630;23.192;2023-01-28T01:43:15;91656.84;;;-1.07;94.19
64602;BME280;51013;42.630;23.192;2023-01-28T01:45:47;91618.34;;;-1.36;94.69
64602;BME280;51013;42.630;23.192;2023-01-28T01:48:17;91654.97;;;-1.21;94.72
64602;BME280;51013;42.630;23.192;2023-01-28T01:50:50;91629.69;;;-1.37;95.09
64602;BME280;51013;42.630;23.192;2023-01-28T01:53:21;91654.19;;;-1.21;95.22
64602;BME280;51013;42.630;23.192;2023-01-28T01:55:52;91657.69;;;-1.31;95.88
64602;BME280;51013;42.630;23.192;2023-01-28T01:58:26;91654.47;;;-1.23;95.85
64602;BME280;51013;42.630;23.192;2023-01-28T02:00:53;91657.25;;;-1.19;95.32
64602;BME280;51013;42.630;23.192;2023-01-28T02:03:25;91652.25;;;-1.29;95.53
64602;BME280;51013;42.630;23.192;2023-01-28T02:05:53;91639.84;;;-1.46;95.91
64602;BME280;51013;42.630;23.192;2023-01-28T02:08:22;91658.78;;;-1.18;95.66
64602;BME280;51013;42.630;23.192;2023-01-28T02:10:53;91665.13;;;-1.10;95.47
64602;BME280;51013;42.630;23.192;2023-01-28T02:13:23;91664.56;;;-1.07;94.69
64602;BME280;51013;42.630;23.192;2023-01-28T02:15:54;91625.19;;;-1.46;94.94
64602;BME280;51013;42.630;23.192;2023-01-28T02:18:21;91663.75;;;-1.22;94.44
64602;BME280;51013;42.630;23.192;2023-01-28T02:21:05;91673.63;;;-1.29;94.75
64602;BME280;51013;42.630;23.192;2023-01-28T02:23:53;91662.63;;;-1.15;95.07
64602;BME280;51013;42.630;23.192;2023-01-28T02:26:36;91634.34;;;-1.21;94.47
64602;BME280;51013;42.630;23.192;2023-01-28T02:29:10;91673.41;;;-1.13;93.63
64602;BME280;51013;42.630;23.192;2023-01-28T02:31:47;91651.63;;;-1.21;93.34
64602;BME280;51013;42.630;23.192;2023-01-28T02:34:20;91668.59;;;-1.01;92.85
64602;BME280;51013;42.630;23.192;2023-01-28T02:36:54;91668.28;;;-1.13;93.10
64602;BME280;51013;42.630;23.192;2023-01-28T02:39:26;91676.81;;;-1.18;93.89
64602;BME280;51013;42.630;23.192;2023-01-28T02:41:57;91673.84;;;-1.25;93.28
64602;BME280;51013;42.630;23.192;2023-01-28T02:44:27;91674.38;;;-1.28;94.16
64602;BME280;51013;42.630;23.192;2023-01-28T02:46:54;91677.28;;;-1.30;94.59
64602;BME280;51013;42.630;23.192;2023-01-28T02:49:40;91673.63;;;-1.29;94.24
64602;BME280;51013;42.630;23.192;2023-01-28T02:52:18;91668.53;;;-1.34;93.79
64602;BME280;51013;42.630;23.192;2023-01-28T02:55:09;91623.78;;;-1.57;92.84
64602;BME280;51013;42.630;23.192;2023-01-28T02:57:47;91666.03;;;-1.20;93.06
64602;BME280;51013;42.630;23.192;2023-01-28T03:00:22;91663.16;;;-1.18;92.25
64602;BME280;51013;42.630;23.192;2023-01-28T03:02:57;91670.03;;;-1.28;93.68
64602;BME280;51013;42.630;23.192;2023-01-28T03:05:29;91675.22;;;-1.33;92.86
64602;BME280;51013;42.630;23.192;2023-01-28T03:07:57;91667.50;;;-1.33;93.08
64602;BME280;51013;42.630;23.192;2023-01-28T03:10:25;91682.91;;;-1.28;93.75
64602;BME280;51013;42.630;23.192;2023-01-28T03:12:54;91682.13;;;-1.28;93.52
64602;BME280;51013;42.630;23.192;2023-01-28T03:15:43;91683.41;;;-1.26;92.66
64602;BME280;51013;42.630;23.192;2023-01-28T03:18:32;91683.72;;;-1.13;93.12
64602;BME280;51013;42.630;23.192;2023-01-28T03:21:23;91667.09;;;-1.21;92.09
64602;BME280;51013;42.630;23.192;2023-01-28T03:24:11;91679.94;;;-1.02;90.38
64602;BME280;51013;42.630;23.192;2023-01-28T03:27:03;91687.03;;;-0.94;91.27
64602;BME280;51013;42.630;23.192;2023-01-28T03:29:49;91686.47;;;-1.24;92.01
64602;BME280;51013;42.630;23.192;2023-01-28T03:32:37;91694.31;;;-1.15;92.48
64602;BME280;51013;42.630;23.192;2023-01-28T03:35:24;91686.06;;;-0.98;92.21
64602;BME280;51013;42.630;23.192;2023-01-28T03:38:11;91687.81;;;-1.12;92.42
64602;BME280;51013;42.630;23.192;2023-01-28T03:40:50;91688.59;;;-1.12;92.24
64602;BME280;51013;42.630;23.192;2023-01-28T03:43:17;91696.41;;;-1.17;92.23
64602;BME280;51013;42.630;23.192;2023-01-28T03:45:46;91691.13;;;-1.26;92.18
64602;BME280;51013;42.630;23.192;2023-01-28T03:48:17;91696.59;;;-1.51;93.72
64602;BME280;51013;42.630;23.192;2023-01-28T03:50:44;91699.06;;;-1.41;93.59
64602;BME280;51013;42.630;23.192;2023-01-28T03:53:12;91663.59;;;-1.68;93.79
64602;BME280;51013;42.630;23.192;2023-01-28T03:55:41;91670.50;;;-1.45;93.24
64602;BME280;51013;42.630;23.192;2023-01-28T03:58:09;91701.34;;;-1.21;92.88
64602;BME280;51013;42.630;23.192;2023-01-28T04:00:36;91712.41;;;-1.20;92.27
64602;BME280;51013;42.630;23.192;2023-01-28T04:03:06;91698.25;;;-1.04;92.00
64602;BME280;51013;42.630;23.192;2023-01-28T04:05:46;91699.00;;;-1.17;91.41
64602;BME280;51013;42.630;23.192;2023-01-28T04:08:22;91704.81;;;-1.30;92.22
64602;BME280;51013;42.630;23.192;2023-01-28T04:10:49;91698.78;;;-1.21;91.43
64602;BME280;51013;42.630;23.192;2023-01-28T04:13:16;91706.88;;;-1.27;91.44
64602;BME280;51013;42.630;23.192;2023-01-28T04:15:44;91707.13;;;-1.29;91.29
64602;BME280;51013;42.630;23.192;2023-01-28T04:18:11;91692.28;;;-1.37;91.76
64602;BME280;51013;42.630;23.192;2023-01-28T04:20:39;91714.81;;;-1.24;91.50
64602;BME280;51013;42.630;23.192;2023-01-28T04:23:07;91717.44;;;-1.10;90.70
64602;BME280;51013;42.630;23.192;2023-01-28T04:25:34;91690.44;;;-1.31;89.93
64602;BME280;51013;42.630;23.192;2023-01-28T04:28:01;91718.50;;;-1.11;90.58
64602;BME280;51013;42.630;23.192;2023-01-28T04:30:28;91720.16;;;-1.20;90.99
64602;BME280;51013;42.630;23.192;2023-01-28T04:32:55;91719.13;;;-1.19;90.87
64602;BME280;51013;42.630;23.192;2023-01-28T04:35:22;91719.47;;;-1.26;90.74
64602;BME280;51013;42.630;23.192;2023-01-28T04:37:49;91727.22;;;-1.26;90.60
64602;BME280;51013;42.630;23.192;2023-01-28T04:40:17;91727.94;;;-1.44;91.29
64602;BME280;51013;42.630;23.192;2023-01-28T04:42:52;91729.75;;;-1.45;92.08
64602;BME280;51013;42.630;23.192;2023-01-28T04:45:18;91730.03;;;-1.46;92.51
64602;BME280;51013;42.630;23.192;2023-01-28T04:47:45;91732.75;;;-1.37;91.70
64602;BME280;51013;42.630;23.192;2023-01-28T04:50:14;91739.16;;;-1.35;92.37
64602;BME280;51013;42.630;23.192;2023-01-28T04:52:41;91699.53;;;-1.58;92.35
64602;BME280;51013;42.630;23.192;2023-01-28T04:55:08;91729.84;;;-1.31;91.06
64602;BME280;51013;42.630;23.192;2023-01-28T04:57:37;91753.38;;;-1.37;91.34
64602;BME280;51013;42.630;23.192;2023-01-28T05:00:04;91740.06;;;-1.45;92.22
64602;BME280;51013;42.630;23.192;2023-01-28T05:02:31;91748.28;;;-1.43;92.43
64602;BME280;51013;42.630;23.192;2023-01-28T05:04:58;91751.84;;;-1.38;91.41
64602;BME280;51013;42.630;23.192;2023-01-28T05:07:25;91744.66;;;-1.42;91.76
64602;BME280;51013;42.630;23.192;2023-01-28T05:09:52;91745.56;;;-1.32;91.76
64602;BME280;51013;42.630;23.192;2023-01-28T05:12:19;91742.44;;;-1.29;91.24
64602;BME280;51013;42.630;23.192;2023-01-28T05:14:47;91755.25;;;-1.43;91.19
64602;BME280;51013;42.630;23.192;2023-01-28T05:17:14;91763.81;;;-1.29;91.81
64602;BME280;51013;42.630;23.192;2023-01-28T05:19:41;91734.38;;;-1.42;91.52
64602;BME280;51013;42.630;23.192;2023-01-28T05:22:10;91769.34;;;-1.35;91.73
64602;BME280;51013;42.630;23.192;2023-01-28T05:24:37;91778.53;;;-1.29;91.79
64602;BME280;51013;42.630;23.192;2023-01-28T05:27:04;91779.69;;;-1.41;92.04
64602;BME280;51013;42.630;23.192;2023-01-28T05:29:31;91770.44;;;-1.23;91.86
64602;BME280;51013;42.630;23.192;2023-01-28T05:31:59;91777.06;;;-1.35;91.83
64602;BME280;51013;42.630;23.192;2023-01-28T05:34:26;91772.78;;;-1.45;92.66
64602;BME280;51013;42.630;23.192;2023-01-28T05:36:53;91779.03;;;-1.51;92.35
64602;BME280;51013;42.630;23.192;2023-01-28T05:39:20;91782.94;;;-1.54;92.53
64602;BME280;51013;42.630;23.192;2023-01-28T05:41:46;91777.44;;;-1.47;92.67
64602;BME280;51013;42.630;23.192;2023-01-28T05:44:16;91786.09;;;-1.38;93.08
64602;BME280;51013;42.630;23.192;2023-01-28T05:46:45;91793.19;;;-1.49;93.29
64602;BME280;51013;42.630;23.192;2023-01-28T05:49:14;91793.66;;;-1.47;93.62
64602;BME280;51013;42.630;23.192;2023-01-28T05:51:41;91773.69;;;-1.36;92.86
64602;BME280;51013;42.630;23.192;2023-01-28T05:54:09;91793.59;;;-1.17;91.86
64602;BME280;51013;42.630;23.192;2023-01-28T05:56:36;91797.69;;;-1.35;91.55
64602;BME280;51013;42.630;23.192;2023-01-28T05:59:04;91801.81;;;-1.15;91.60
64602;BME280;51013;42.630;23.192;2023-01-28T06:01:31;91774.50;;;-1.16;91.64
64602;BME280;51013;42.630;23.192;2023-01-28T06:03:58;91797.03;;;-1.03;91.54
64602;BME280;51013;42.630;23.192;2023-01-28T06:06:26;91780.84;;;-1.28;91.64
64602;BME280;51013;42.630;23.192;2023-01-28T06:08:53;91808.09;;;-1.03;90.83
64602;BME280;51013;42.630;23.192;2023-01-28T06:11:19;91798.53;;;-1.02;90.84
64602;BME280;51013;42.630;23.192;2023-01-28T06:13:46;91800.63;;;-1.04;90.82
64602;BME280;51013;42.630;23.192;2023-01-28T06:16:15;91815.13;;;-1.08;90.68
64602;BME280;51013;42.630;23.192;2023-01-28T06:18:44;91825.38;;;-1.03;90.94
64602;BME280;51013;42.630;23.192;2023-01-28T06:21:11;91813.88;;;-0.92;90.44
64602;BME280;51013;42.630;23.192;2023-01-28T06:23:41;91822.59;;;-0.88;90.09
64602;BME280;51013;42.630;23.192;2023-01-28T06:26:07;91833.75;;;-0.92;89.66
64602;BME280;51013;42.630;23.192;2023-01-28T06:28:34;91833.81;;;-0.97;89.94
64602;BME280;51013;42.630;23.192;2023-01-28T06:31:01;91831.66;;;-1.09;90.95
64602;BME280;51013;42.630;23.192;2023-01-28T06:33:27;91834.59;;;-0.97;90.22
64602;BME280;51013;42.630;23.192;2023-01-28T06:35:54;91831.16;;;-0.92;90.29
64602;BME280;51013;42.630;23.192;2023-01-28T06:38:21;91840.06;;;-1.04;90.55
64602;BME280;51013;42.630;23.192;2023-01-28T06:40:51;91835.81;;;-1.13;90.65
64602;BME280;51013;42.630;23.192;2023-01-28T06:43:20;91820.41;;;-1.18;90.15
64602;BME280;51013;42.630;23.192;2023-01-28T06:45:51;91852.06;;;-0.94;89.54
64602;BME280;51013;42.630;23.192;2023-01-28T06:48:18;91851.22;;;-0.89;89.71
64602;BME280;51013;42.630;23.192;2023-01-28T06:50:45;91862.19;;;-0.78;89.38
64602;BME280;51013;42.630;23.192;2023-01-28T06:53:12;91868.31;;;-0.93;89.16
64602;BME280;51013;42.630;23.192;2023-01-28T06:55:40;91870.78;;;-0.83;89.66
64602;BME280;51013;42.630;23.192;2023-01-28T06:58:09;91867.00;;;-0.72;89.78
64602;BME280;51013;42.630;23.192;2023-01-28T07:00:36;91857.34;;;-1.04;89.89
64602;BME280;51013;42.630;23.192;2023-01-28T07:03:03;91875.53;;;-0.95;89.99
64602;BME280;51013;42.630;23.192;2023-01-28T07:05:30;91874.69;;;-1.10;90.23
64602;BME280;51013;42.630;23.192;2023-01-28T07:07:57;91878.25;;;-1.06;90.76
64602;BME280;51013;42.630;23.192;2023-01-28T07:10:24;91885.22;;;-1.06;90.19
64602;BME280;51013;42.630;23.192;2023-01-28T07:12:50;91882.97;;;-1.13;90.82
64602;BME280;51013;42.630;23.192;2023-01-28T07:15:18;91889.50;;;-1.21;91.70
64602;BME280;51013;42.630;23.192;2023-01-28T07:17:45;91888.25;;;-1.23;92.19
64602;BME280;51013;42.630;23.192;2023-01-28T07:20:14;91890.34;;;-1.25;92.22
64602;BME280;51013;42.630;23.192;2023-01-28T07:22:42;91898.91;;;-1.30;92.60
64602;BME280;51013;42.630;23.192;2023-01-28T07:25:11;91897.41;;;-1.12;92.27
64602;BME280;51013;42.630;23.192;2023-01-28T07:27:48;91899.31;;;-0.98;91.36
64602;BME280;51013;42.630;23.192;2023-01-28T07:30:16;91897.78;;;-0.99;90.60
64602;BME280;51013;42.630;23.192;2023-01-28T07:32:45;91881.84;;;-1.26;91.17
64602;BME280;51013;42.630;23.192;2023-01-28T07:35:14;91904.94;;;-1.15;91.59
64602;BME280;51013;42.630;23.192;2023-01-28T07:37:41;91907.41;;;-1.05;91.91
64602;BME280;51013;42.630;23.192;2023-01-28T07:40:08;91906.13;;;-1.08;91.93
64602;BME280;51013;42.630;23.192;2023-01-28T07:42:35;91913.97;;;-0.94;91.76
64602;BME280;51013;42.630;23.192;2023-01-28T07:45:02;91913.69;;;-0.92;91.40
64602;BME280;51013;42.630;23.192;2023-01-28T07:47:29;91914.78;;;-0.98;91.46
64602;BME280;51013;42.630;23.192;2023-01-28T07:49:57;91922.38;;;-0.83;91.14
64602;BME280;51013;42.630;23.192;2023-01-28T07:52:24;91921.31;;;-0.82;91.00
64602;BME280;51013;42.630;23.192;2023-01-28T07:54:51;91926.19;;;-0.81;90.83
64602;BME280;51013;42.630;23.192;2023-01-28T07:57:18;91924.94;;;-0.83;90.82
64602;BME280;51013;42.630;23.192;2023-01-28T07:59:47;91920.81;;;-0.84;90.52
64602;BME280;51013;42.630;23.192;2023-01-28T08:02:15;91929.91;;;-0.92;90.54
64602;BME280;51013;42.630;23.192;2023-01-28T08:04:44;91933.34;;;-0.96;90.93
64602;BME280;51013;42.630;23.192;2023-01-28T08:07:15;91897.63;;;-1.08;90.31
64602;BME280;51013;42.630;23.192;2023-01-28T08:09:45;91933.53;;;-0.69;90.01
64602;BME280;51013;42.630;23.192;2023-01-28T08:12:17;91936.53;;;-0.62;89.75
64602;BME280;51013;42.630;23.192;2023-01-28T08:14:44;91949.06;;;-0.74;89.63
64602;BME280;51013;42.630;23.192;2023-01-28T08:17:11;91942.88;;;-0.73;89.43
64602;BME280;51013;42.630;23.192;2023-01-28T08:19:39;91944.88;;;-0.70;89.96
64602;BME280;51013;42.630;23.192;2023-01-28T08:22:06;91948.09;;;-0.78;89.42
64602;BME280;51013;42.630;23.192;2023-01-28T08:24:34;91948.22;;;-0.69;89.69
64602;BME280;51013;42.630;23.192;2023-01-28T08:27:01;91933.16;;;-0.81;89.88
64602;BME280;51013;42.630;23.192;2023-01-28T08:29:28;91949.13;;;-0.79;90.43
64602;BME280;51013;42.630;23.192;2023-01-28T08:31:55;91952.59;;;-0.65;90.30
64602;BME280;51013;42.630;23.192;2023-01-28T08:34:21;91951.50;;;-0.83;89.91
64602;BME280;51013;42.630;23.192;2023-01-28T08:36:48;91953.69;;;-0.71;90.46
64602;BME280;51013;42.630;23.192;2023-01-28T08:39:15;91951.88;;;-0.70;90.48
64602;BME280;51013;42.630;23.192;2023-01-28T08:41:45;91957.63;;;-0.78;89.95
64602;BME280;51013;42.630;23.192;2023-01-28T08:44:14;91944.03;;;-0.84;90.55
64602;BME280;51013;42.630;23.192;2023-01-28T08:46:41;91933.25;;;-0.91;90.94
64602;BME280;51013;42.630;23.192;2023-01-28T08:49:09;91956.53;;;-0.72;89.96
64602;BME280;51013;42.630;23.192;2023-01-28T08:51:36;91958.75;;;-0.85;89.90
64602;BME280;51013;42.630;23.192;2023-01-28T08:54:03;91953.97;;;-0.72;90.38
64602;BME280;51013;42.630;23.192;2023-01-28T08:56:29;91963.44;;;-0.68;90.26
64602;BME280;51013;42.630;23.192;2023-01-28T08:58:57;91965.22;;;-0.44;90.08
64602;BME280;51013;42.630;23.192;2023-01-28T09:01:24;91961.06;;;-0.40;88.78
64602;BME280;51013;42.630;23.192;2023-01-28T09:03:53;91961.94;;;-0.31;88.35
64602;BME280;51013;42.630;23.192;2023-01-28T09:06:20;91968.03;;;-0.22;88.66
64602;BME280;51013;42.630;23.192;2023-01-28T09:08:47;91962.47;;;-0.10;87.65
64602;BME280;51013;42.630;23.192;2023-01-28T09:11:14;91963.97;;;-0.09;87.44
64602;BME280;51013;42.630;23.192;2023-01-28T09:13:41;91958.53;;;-0.07;87.66
64602;BME280;51013;42.630;23.192;2023-01-28T09:16:11;91963.00;;;-0.13;88.38
64602;BME280;51013;42.630;23.192;2023-01-28T09:18:40;91933.47;;;-0.45;88.11
64602;BME280;51013;42.630;23.192;2023-01-28T09:21:07;91947.94;;;-0.25;88.06
64602;BME280;51013;42.630;23.192;2023-01-28T09:23:34;91966.41;;;0.02;87.88
64602;BME280;51013;42.630;23.192;2023-01-28T09:26:02;91964.25;;;-0.10;87.00
64602;BME280;51013;42.630;23.192;2023-01-28T09:28:29;91959.31;;;-0.07;87.50
64602;BME280;51013;42.630;23.192;2023-01-28T09:31:01;91964.34;;;-0.15;87.65
64602;BME280;51013;42.630;23.192;2023-01-28T09:33:29;91941.66;;;-0.18;87.11
64602;BME280;51013;42.630;23.192;2023-01-28T09:35:58;91965.31;;;-0.11;87.90
64602;BME280;51013;42.630;23.192;2023-01-28T09:38:26;91967.75;;;-0.01;87.64
64602;BME280;51013;42.630;23.192;2023-01-28T09:40:52;91964.75;;;-0.08;88.39
64602;BME280;51013;42.630;23.192;2023-01-28T09:43:39;91964.31;;;0.04;88.01
64602;BME280;51013;42.630;23.192;2023-01-28T09:46:14;91968.13;;;-0.08;87.52
64602;BME280;51013;42.630;23.192;2023-01-28T09:48:47;91966.72;;;0.00;87.76
64602;BME280;51013;42.630;23.192;2023-01-28T09:51:25;91684.38;;;-1.84;87.31
64602;BME280;51013;42.630;23.192;2023-01-28T09:53:56;91967.69;;;0.04;87.89
64602;BME280;51013;42.630;23.192;2023-01-28T09:56:29;91961.09;;;0.12;86.75
64602;BME280;51013;42.630;23.192;2023-01-28T09:58:57;91950.44;;;-0.01;86.83
64602;BME280;51013;42.630;23.192;2023-01-28T10:01:37;91961.69;;;0.09;87.23
64602;BME280;51013;42.630;23.192;2023-01-28T10:04:15;91960.28;;;0.16;86.93
64602;BME280;51013;42.630;23.192;2023-01-28T10:06:56;91958.31;;;0.27;87.71
64602;BME280;51013;42.630;23.192;2023-01-28T10:09:34;91961.28;;;0.34;87.67
64602;BME280;51013;42.630;23.192;2023-01-28T10:12:33;91955.28;;;0.39;87.03
64602;BME280;51013;42.630;23.192;2023-01-28T10:18:08;91948.63;;;0.52;85.95
64602;BME280;51013;42.630;23.192;2023-01-28T10:20:39;91913.28;;;0.47;85.56
64602;BME280;51013;42.630;23.192;2023-01-28T10:23:15;91940.81;;;0.71;85.92
64602;BME280;51013;42.630;23.192;2023-01-28T10:25:46;91932.91;;;0.48;85.98
64602;BME280;51013;42.630;23.192;2023-01-28T10:28:19;91951.78;;;0.49;86.15
64602;BME280;51013;42.630;23.192;2023-01-28T10:30:47;91945.66;;;0.45;87.10
64602;BME280;51013;42.630;23.192;2023-01-28T10:33:18;91952.41;;;0.40;86.98
64602;BME280;51013;42.630;23.192;2023-01-28T10:35:47;91957.28;;;0.42;87.65
64602;BME280;51013;42.630;23.192;2023-01-28T10:38:18;91948.88;;;0.17;88.35
64602;BME280;51013;42.630;23.192;2023-01-28T10:40:45;91943.34;;;0.24;88.08
64602;BME280;51013;42.630;23.192;2023-01-28T10:43:18;91953.53;;;0.34;88.13
64602;BME280;51013;42.630;23.192;2023-01-28T10:45:53;91957.56;;;0.40;88.07
64602;BME280;51013;42.630;23.192;2023-01-28T10:48:23;91949.38;;;0.52;87.40
64602;BME280;51013;42.630;23.192;2023-01-28T10:50:53;91871.03;;;-0.09;87.45
64602;BME280;51013;42.630;23.192;2023-01-28T10:53:33;91954.81;;;0.37;87.54
64602;BME280;51013;42.630;23.192;2023-01-28T10:56:00;91951.00;;;0.48;86.74
64602;BME280;51013;42.630;23.192;2023-01-28T10:58:30;91946.31;;;0.50;87.29
64602;BME280;51013;42.630;23.192;2023-01-28T11:01:00;91934.41;;;0.35;86.83
64602;BME280;51013;42.630;23.192;2023-01-28T11:03:28;91942.59;;;0.56;86.73
64602;BME280;51013;42.630;23.192;2023-01-28T11:05:57;91925.84;;;0.54;86.96
64602;BME280;51013;42.630;23.192;2023-01-28T11:08:25;91953.13;;;0.60;86.40
64602;BME280;51013;42.630;23.192;2023-01-28T11:10:53;91950.28;;;0.62;86.65
64602;BME280;51013;42.630;23.192;2023-01-28T11:13:22;91950.72;;;0.50;86.49
64602;BME280;51013;42.630;23.192;2023-01-28T11:15:50;91955.13;;;0.49;87.02
64602;BME280;51013;42.630;23.192;2023-01-28T11:18:20;91948.50;;;0.43;87.36
64602;BME280;51013;42.630;23.192;2023-01-28T11:20:51;91942.66;;;0.37;88.21
64602;BME280;51013;42.630;23.192;2023-01-28T11:23:24;91950.72;;;0.50;88.13
64602;BME280;51013;42.630;23.192;2023-01-28T11:26:05;91946.63;;;0.49;87.15
64602;BME280;51013;42.630;23.192;2023-01-28T11:28:34;91929.34;;;0.44;87.34
64602;BME280;51013;42.630;23.192;2023-01-28T11:31:05;91934.63;;;0.39;86.77
64602;BME280;51013;42.630;23.192;2023-01-28T11:33:35;91939.69;;;0.44;86.85
64602;BME280;51013;42.630;23.192;2023-01-28T11:36:10;91945.94;;;0.24;87.55
64602;BME280;51013;42.630;23.192;2023-01-28T11:38:50;91939.78;;;0.39;88.21
64602;BME280;51013;42.630;23.192;2023-01-28T11:41:18;91939.19;;;0.61;87.28
64602;BME280;51013;42.630;23.192;2023-01-28T11:43:48;91940.63;;;0.67;86.53
64602;BME280;51013;42.630;23.192;2023-01-28T11:46:38;91936.59;;;0.61;86.35
64602;BME280;51013;42.630;23.192;2023-01-28T11:49:16;91918.66;;;0.65;85.68
64602;BME280;51013;42.630;23.192;2023-01-28T11:51:49;91936.97;;;0.68;86.33
64602;BME280;51013;42.630;23.192;2023-01-28T11:54:30;91936.78;;;0.65;85.98
64602;BME280;51013;42.630;23.192;2023-01-28T11:57:12;91939.31;;;0.84;86.39
64602;BME280;51013;42.630;23.192;2023-01-28T11:59:53;91936.41;;;0.85;85.61
64602;BME280;51013;42.630;23.192;2023-01-28T12:02:36;91920.50;;;0.64;85.64
64602;BME280;51013;42.630;23.192;2023-01-28T12:05:21;91910.50;;;0.44;85.55
64602;BME280;51013;42.630;23.192;2023-01-28T12:07:57;91940.44;;;0.77;85.50
64602;BME280;51013;42.630;23.192;2023-01-28T12:10:37;91942.00;;;0.92;84.82
64602;BME280;51013;42.630;23.192;2023-01-28T12:13:24;91922.06;;;0.93;84.57
64602;BME280;51013;42.630;23.192;2023-01-28T12:16:17;91940.09;;;0.98;84.01
64602;BME280;51013;42.630;23.192;2023-01-28T12:19:08;91943.63;;;0.88;83.25
64602;BME280;51013;42.630;23.192;2023-01-28T12:21:52;91941.78;;;0.89;83.46
64602;BME280;51013;42.630;23.192;2023-01-28T12:24:34;91936.56;;;1.08;84.10
64602;BME280;51013;42.630;23.192;2023-01-28T12:27:13;91944.88;;;1.05;84.07
64602;BME280;51013;42.630;23.192;2023-01-28T12:29:50;91907.38;;;0.74;83.63
64602;BME280;51013;42.630;23.192;2023-01-28T12:32:35;91938.72;;;1.00;83.63
64602;BME280;51013;42.630;23.192;2023-01-28T12:35:22;91946.22;;;1.02;83.44
64602;BME280;51013;42.630;23.192;2023-01-28T12:37:59;91944.28;;;0.80;83.39
64602;BME280;51013;42.630;23.192;2023-01-28T12:40:48;91951.09;;;0.90;84.06
64602;BME280;51013;42.630;23.192;2023-01-28T12:43:23;91944.09;;;0.90;83.73
64602;BME280;51013;42.630;23.192;2023-01-28T12:45:54;91946.09;;;0.79;82.63
64602;BME280;51013;42.630;23.192;2023-01-28T12:48:27;91961.03;;;0.83;83.23
64602;BME280;51013;42.630;23.192;2023-01-28T12:51:01;91939.66;;;0.77;83.28
64602;BME280;51013;42.630;23.192;2023-01-28T12:53:34;91960.94;;;0.74;84.06
64602;BME280;51013;42.630;23.192;2023-01-28T12:56:07;91963.06;;;0.86;83.90
64602;BME280;51013;42.630;23.192;2023-01-28T12:58:39;91958.53;;;0.77;83.58
64602;BME280;51013;42.630;23.192;2023-01-28T13:01:15;91966.09;;;0.74;83.34
64602;BME280;51013;42.630;23.192;2023-01-28T13:03:50;91961.63;;;0.79;83.24
64602;BME280;51013;42.630;23.192;2023-01-28T13:06:23;91968.06;;;0.49;83.66
64602;BME280;51013;42.630;23.192;2023-01-28T13:08:59;91971.81;;;0.57;83.55
64602;BME280;51013;42.630;23.192;2023-01-28T13:11:32;91972.47;;;0.49;84.50
64602;BME280;51013;42.630;23.192;2023-01-28T13:14:01;91972.53;;;0.44;85.07
64602;BME280;51013;42.630;23.192;2023-01-28T13:16:29;91981.03;;;0.44;85.45